sensor_id;sensor_type;location;lat;lon;timestamp;P1;durP1;ratioP1;P2;durP2;ratioP2
28988;SDS011;16089;59.952;10.818;2022-10-17T00:00:33;3.67;;;0.60;;
28988;SDS011;16089;59.952;10.818;2022-10-17T00:03:00;3.97;;;0.52;;
28988;SDS011;16089;59.952;10.818;2022-10-17T00:05:26;5.20;;;0.60;;
28988;SDS011;16089;59.952;10.818;2022-10-17T00:07:52;2.15;;;0.45;;
28988;SDS011;16089;59.952;10.818;2022-10-17T00:10:21;3.05;;;0.50;;
28988;SDS011;16089;59.952;10.818;2022-10-17T00:12:47;4.75;;;1.08;;
28988;SDS011;16089;59.952;10.818;2022-10-17T00:15:14;1.15;;;0.50;;
28988;SDS011;16089;59.952;10.818;2022-10-17T00:17:40;3.65;;;0.47;;
28988;SDS011;16089;59.952;10.818;2022-10-17T00:20:07;3.40;;;0.50;;
28988;SDS011;16089;59.952;10.818;2022-10-17T00:22:33;4.68;;;0.50;;
28988;SDS011;16089;59.952;10.818;2022-10-17T00:24:59;2.42;;;0.65;;
28988;SDS011;16089;59.952;10.818;2022-10-17T00:27:27;2.80;;;0.50;;
28988;SDS011;16089;59.952;10.818;2022-10-17T00:29:53;2.45;;;0.52;;
28988;SDS011;16089;59.952;10.818;2022-10-17T00:32:20;3.47;;;0.50;;
28988;SDS011;16089;59.952;10.818;2022-10-17T00:34:46;1.77;;;0.40;;
28988;SDS011;16089;59.952;10.818;2022-10-17T00:37:13;4.18;;;0.60;;
28988;SDS011;16089;59.952;10.818;2022-10-17T00:39:39;2.60;;;0.63;;
28988;SDS011;16089;59.952;10.818;2022-10-17T00:42:05;3.00;;;0.50;;
28988;SDS011;16089;59.952;10.818;2022-10-17T00:47:18;1.90;;;0.55;;
28988;SDS011;16089;59.952;10.818;2022-10-17T00:49:45;0.80;;;0.43;;
28988;SDS011;16089;59.952;10.818;2022-10-17T00:52:12;5.18;;;0.65;;
28988;SDS011;16089;59.952;10.818;2022-10-17T00:54:39;4.40;;;0.60;;
28988;SDS011;16089;59.952;10.818;2022-10-17T00:57:08;3.22;;;0.50;;
28988;SDS011;16089;59.952;10.818;2022-10-17T00:59:35;2.97;;;0.60;;
28988;SDS011;16089;59.952;10.818;2022-10-17T01:02:03;4.15;;;0.50;;
28988;SDS011;16089;59.952;10.818;2022-10-17T01:04:31;1.27;;;0.30;;
28988;SDS011;16089;59.952;10.818;2022-10-17T01:06:58;4.13;;;0.40;;
28988;SDS011;16089;59.952;10.818;2022-10-17T01:09:24;2.60;;;0.40;;
28988;SDS011;16089;59.952;10.818;2022-10-17T01:11:53;1.83;;;0.60;;
28988;SDS011;16089;59.952;10.818;2022-10-17T01:14:23;1.88;;;0.60;;
28988;SDS011;16089;59.952;10.818;2022-10-17T01:16:55;3.53;;;1.17;;
28988;SDS011;16089;59.952;10.818;2022-10-17T01:19:37;2.25;;;0.55;;
28988;SDS011;16089;59.952;10.818;2022-10-17T01:22:07;4.70;;;0.40;;
28988;SDS011;16089;59.952;10.818;2022-10-17T01:24:40;6.80;;;0.90;;
28988;SDS011;16089;59.952;10.818;2022-10-17T01:27:35;3.80;;;0.50;;
28988;SDS011;16089;59.952;10.818;2022-10-17T01:30:08;5.13;;;0.70;;
28988;SDS011;16089;59.952;10.818;2022-10-17T01:32:38;1.90;;;0.43;;
28988;SDS011;16089;59.952;10.818;2022-10-17T01:35:07;4.38;;;0.70;;
28988;SDS011;16089;59.952;10.818;2022-10-17T01:37:36;7.18;;;0.63;;
28988;SDS011;16089;59.952;10.818;2022-10-17T01:40:06;3.80;;;0.45;;
28988;SDS011;16089;59.952;10.818;2022-10-17T01:42:35;4.22;;;0.65;;
28988;SDS011;16089;59.952;10.818;2022-10-17T01:45:03;2.47;;;0.38;;
28988;SDS011;16089;59.952;10.818;2022-10-17T01:47:31;1.88;;;0.40;;
28988;SDS011;16089;59.952;10.818;2022-10-17T01:50:00;3.65;;;0.80;;
28988;SDS011;16089;59.952;10.818;2022-10-17T01:52:29;2.95;;;0.52;;
28988;SDS011;16089;59.952;10.818;2022-10-17T01:54:59;4.47;;;0.68;;
28988;SDS011;16089;59.952;10.818;2022-10-17T01:57:29;3.70;;;0.60;;
28988;SDS011;16089;59.952;10.818;2022-10-17T01:59:56;2.35;;;0.50;;
28988;SDS011;16089;59.952;10.818;2022-10-17T02:02:23;5.35;;;0.50;;
28988;SDS011;16089;59.952;10.818;2022-10-17T02:04:50;3.78;;;0.40;;
28988;SDS011;16089;59.952;10.818;2022-10-17T02:07:18;4.88;;;1.00;;
28988;SDS011;16089;59.952;10.818;2022-10-17T02:09:45;3.00;;;0.60;;
28988;SDS011;16089;59.952;10.818;2022-10-17T02:12:21;4.82;;;1.27;;
28988;SDS011;16089;59.952;10.818;2022-10-17T02:14:53;4.15;;;0.30;;
28988;SDS011;16089;59.952;10.818;2022-10-17T02:17:25;8.63;;;0.60;;
28988;SDS011;16089;59.952;10.818;2022-10-17T02:19:56;7.47;;;0.75;;
28988;SDS011;16089;59.952;10.818;2022-10-17T02:22:29;3.40;;;0.52;;
28988;SDS011;16089;59.952;10.818;2022-10-17T02:25:02;3.90;;;0.50;;
28988;SDS011;16089;59.952;10.818;2022-10-17T02:27:32;3.53;;;0.52;;
28988;SDS011;16089;59.952;10.818;2022-10-17T02:30:02;3.45;;;0.57;;
28988;SDS011;16089;59.952;10.818;2022-10-17T02:32:32;3.65;;;0.45;;
28988;SDS011;16089;59.952;10.818;2022-10-17T02:35:00;4.18;;;0.50;;
28988;SDS011;16089;59.952;10.818;2022-10-17T02:37:28;0.35;;;0.20;;
28988;SDS011;16089;59.952;10.818;2022-10-17T02:39:56;2.28;;;0.55;;
28988;SDS011;16089;59.952;10.818;2022-10-17T02:42:24;6.68;;;0.50;;
28988;SDS011;16089;59.952;10.818;2022-10-17T02:44:51;1.92;;;0.45;;
28988;SDS011;16089;59.952;10.818;2022-10-17T02:47:20;4.18;;;0.60;;
28988;SDS011;16089;59.952;10.818;2022-10-17T02:49:49;3.22;;;0.70;;
28988;SDS011;16089;59.952;10.818;2022-10-17T02:52:16;1.63;;;0.40;;
28988;SDS011;16089;59.952;10.818;2022-10-17T02:54:49;4.78;;;0.60;;
28988;SDS011;16089;59.952;10.818;2022-10-17T02:57:17;6.28;;;0.90;;
28988;SDS011;16089;59.952;10.818;2022-10-17T02:59:47;5.72;;;0.60;;
28988;SDS011;16089;59.952;10.818;2022-10-17T03:02:14;3.20;;;0.35;;
28988;SDS011;16089;59.952;10.818;2022-10-17T03:04:41;5.03;;;0.70;;
28988;SDS011;16089;59.952;10.818;2022-10-17T03:07:07;3.65;;;0.60;;
28988;SDS011;16089;59.952;10.818;2022-10-17T03:09:34;3.83;;;0.70;;
28988;SDS011;16089;59.952;10.818;2022-10-17T03:12:01;6.25;;;0.73;;
28988;SDS011;16089;59.952;10.818;2022-10-17T03:14:28;2.13;;;0.55;;
28988;SDS011;16089;59.952;10.818;2022-10-17T03:16:54;8.43;;;3.67;;
28988;SDS011;16089;59.952;10.818;2022-10-17T03:19:20;5.00;;;1.17;;
28988;SDS011;16089;59.952;10.818;2022-10-17T03:21:46;3.65;;;0.70;;
28988;SDS011;16089;59.952;10.818;2022-10-17T03:24:13;1.48;;;0.50;;
28988;SDS011;16089;59.952;10.818;2022-10-17T03:26:39;1.77;;;0.50;;
28988;SDS011;16089;59.952;10.818;2022-10-17T03:29:07;1.17;;;0.52;;
28988;SDS011;16089;59.952;10.818;2022-10-17T03:31:33;2.83;;;0.30;;
28988;SDS011;16089;59.952;10.818;2022-10-17T03:34:00;2.15;;;0.73;;
28988;SDS011;16089;59.952;10.818;2022-10-17T03:36:27;3.92;;;0.50;;
28988;SDS011;16089;59.952;10.818;2022-10-17T03:38:53;3.35;;;0.40;;
28988;SDS011;16089;59.952;10.818;2022-10-17T03:41:20;3.97;;;0.40;;
28988;SDS011;16089;59.952;10.818;2022-10-17T03:43:46;2.95;;;0.55;;
28988;SDS011;16089;59.952;10.818;2022-10-17T03:46:14;3.40;;;0.50;;
28988;SDS011;16089;59.952;10.818;2022-10-17T03:48:40;4.45;;;0.73;;
28988;SDS011;16089;59.952;10.818;2022-10-17T03:51:07;2.92;;;0.47;;
28988;SDS011;16089;59.952;10.818;2022-10-17T03:53:33;3.42;;;0.60;;
28988;SDS011;16089;59.952;10.818;2022-10-17T03:56:07;2.42;;;0.70;;
28988;SDS011;16089;59.952;10.818;2022-10-17T03:58:33;1.52;;;0.35;;
28988;SDS011;16089;59.952;10.818;2022-10-17T04:01:02;2.72;;;0.60;;
28988;SDS011;16089;59.952;10.818;2022-10-17T04:03:29;2.20;;;0.60;;
28988;SDS011;16089;59.952;10.818;2022-10-17T04:05:57;2.10;;;0.60;;
28988;SDS011;16089;59.952;10.818;2022-10-17T04:08:23;3.50;;;0.50;;
28988;SDS011;16089;59.952;10.818;2022-10-17T04:10:49;4.95;;;0.73;;
28988;SDS011;16089;59.952;10.818;2022-10-17T04:13:18;2.28;;;0.60;;
28988;SDS011;16089;59.952;10.818;2022-10-17T04:15:52;5.28;;;0.70;;
28988;SDS011;16089;59.952;10.818;2022-10-17T04:18:18;1.35;;;0.35;;
28988;SDS011;16089;59.952;10.818;2022-10-17T04:20:46;3.50;;;0.60;;
28988;SDS011;16089;59.952;10.818;2022-10-17T04:23:12;2.83;;;0.60;;
28988;SDS011;16089;59.952;10.818;2022-10-17T04:25:38;2.78;;;0.80;;
28988;SDS011;16089;59.952;10.818;2022-10-17T04:28:05;1.17;;;0.40;;
28988;SDS011;16089;59.952;10.818;2022-10-17T04:30:31;5.40;;;1.10;;
28988;SDS011;16089;59.952;10.818;2022-10-17T04:32:57;3.53;;;0.63;;
28988;SDS011;16089;59.952;10.818;2022-10-17T04:35:24;1.15;;;0.47;;
28988;SDS011;16089;59.952;10.818;2022-10-17T04:37:51;4.38;;;0.40;;
28988;SDS011;16089;59.952;10.818;2022-10-17T04:40:18;1.70;;;0.30;;
28988;SDS011;16089;59.952;10.818;2022-10-17T04:42:44;2.38;;;0.40;;
28988;SDS011;16089;59.952;10.818;2022-10-17T04:45:11;1.60;;;0.38;;
28988;SDS011;16089;59.952;10.818;2022-10-17T04:47:37;3.40;;;0.68;;
28988;SDS011;16089;59.952;10.818;2022-10-17T04:50:04;6.13;;;0.47;;
28988;SDS011;16089;59.952;10.818;2022-10-17T04:52:31;5.05;;;0.60;;
28988;SDS011;16089;59.952;10.818;2022-10-17T04:55:02;2.55;;;1.00;;
28988;SDS011;16089;59.952;10.818;2022-10-17T04:57:29;5.30;;;0.75;;
28988;SDS011;16089;59.952;10.818;2022-10-17T04:59:55;4.03;;;0.50;;
28988;SDS011;16089;59.952;10.818;2022-10-17T05:02:21;3.85;;;0.52;;
28988;SDS011;16089;59.952;10.818;2022-10-17T05:04:48;2.30;;;0.38;;
28988;SDS011;16089;59.952;10.818;2022-10-17T05:07:14;1.10;;;0.40;;
28988;SDS011;16089;59.952;10.818;2022-10-17T05:09:40;3.85;;;0.30;;
28988;SDS011;16089;59.952;10.818;2022-10-17T05:12:08;2.78;;;0.40;;
28988;SDS011;16089;59.952;10.818;2022-10-17T05:14:34;2.83;;;0.50;;
28988;SDS011;16089;59.952;10.818;2022-10-17T05:17:01;3.33;;;0.50;;
28988;SDS011;16089;59.952;10.818;2022-10-17T05:19:27;3.38;;;0.45;;
28988;SDS011;16089;59.952;10.818;2022-10-17T05:21:53;1.85;;;0.25;;
28988;SDS011;16089;59.952;10.818;2022-10-17T05:24:20;1.13;;;0.40;;
28988;SDS011;16089;59.952;10.818;2022-10-17T05:26:48;7.43;;;0.60;;
28988;SDS011;16089;59.952;10.818;2022-10-17T05:29:16;9.32;;;0.60;;
28988;SDS011;16089;59.952;10.818;2022-10-17T05:31:42;5.05;;;0.82;;
28988;SDS011;16089;59.952;10.818;2022-10-17T05:34:09;3.38;;;0.50;;
28988;SDS011;16089;59.952;10.818;2022-10-17T05:36:35;2.05;;;0.50;;
28988;SDS011;16089;59.952;10.818;2022-10-17T05:39:01;6.25;;;0.57;;
28988;SDS011;16089;59.952;10.818;2022-10-17T05:41:28;4.95;;;0.73;;
28988;SDS011;16089;59.952;10.818;2022-10-17T05:43:54;5.57;;;1.60;;
28988;SDS011;16089;59.952;10.818;2022-10-17T05:46:22;4.53;;;1.17;;
28988;SDS011;16089;59.952;10.818;2022-10-17T05:48:48;3.58;;;0.60;;
28988;SDS011;16089;59.952;10.818;2022-10-17T05:51:15;7.00;;;0.98;;
28988;SDS011;16089;59.952;10.818;2022-10-17T05:53:41;6.57;;;1.05;;
28988;SDS011;16089;59.952;10.818;2022-10-17T05:56:08;6.03;;;1.33;;
28988;SDS011;16089;59.952;10.818;2022-10-17T05:58:35;2.20;;;0.90;;
28988;SDS011;16089;59.952;10.818;2022-10-17T06:01:02;6.25;;;0.70;;
28988;SDS011;16089;59.952;10.818;2022-10-17T06:03:30;2.63;;;0.50;;
28988;SDS011;16089;59.952;10.818;2022-10-17T06:06:01;5.38;;;0.70;;
28988;SDS011;16089;59.952;10.818;2022-10-17T06:08:28;2.58;;;0.70;;
28988;SDS011;16089;59.952;10.818;2022-10-17T06:10:55;1.40;;;0.50;;
28988;SDS011;16089;59.952;10.818;2022-10-17T06:13:21;4.55;;;0.80;;
28988;SDS011;16089;59.952;10.818;2022-10-17T06:15:47;5.65;;;1.05;;
28988;SDS011;16089;59.952;10.818;2022-10-17T06:18:13;4.82;;;0.55;;
28988;SDS011;16089;59.952;10.818;2022-10-17T06:20:41;2.53;;;0.90;;
28988;SDS011;16089;59.952;10.818;2022-10-17T06:23:07;3.58;;;0.63;;
28988;SDS011;16089;59.952;10.818;2022-10-17T06:25:34;3.85;;;1.08;;
28988;SDS011;16089;59.952;10.818;2022-10-17T06:28:00;3.45;;;0.68;;
28988;SDS011;16089;59.952;10.818;2022-10-17T06:30:27;3.17;;;0.60;;
28988;SDS011;16089;59.952;10.818;2022-10-17T06:32:53;5.65;;;0.80;;
28988;SDS011;16089;59.952;10.818;2022-10-17T06:35:19;4.95;;;0.90;;
28988;SDS011;16089;59.952;10.818;2022-10-17T06:37:47;4.68;;;0.82;;
28988;SDS011;16089;59.952;10.818;2022-10-17T06:40:13;3.35;;;0.60;;
28988;SDS011;16089;59.952;10.818;2022-10-17T06:42:41;3.38;;;0.60;;
28988;SDS011;16089;59.952;10.818;2022-10-17T06:45:08;4.90;;;0.60;;
28988;SDS011;16089;59.952;10.818;2022-10-17T06:47:34;3.35;;;0.60;;
28988;SDS011;16089;59.952;10.818;2022-10-17T06:50:01;3.47;;;0.80;;
28988;SDS011;16089;59.952;10.818;2022-10-17T06:52:27;5.15;;;0.90;;
28988;SDS011;16089;59.952;10.818;2022-10-17T06:54:55;4.60;;;0.88;;
28988;SDS011;16089;59.952;10.818;2022-10-17T06:57:21;2.95;;;0.68;;
28988;SDS011;16089;59.952;10.818;2022-10-17T06:59:47;3.83;;;0.70;;
28988;SDS011;16089;59.952;10.818;2022-10-17T07:02:14;4.30;;;1.00;;
28988;SDS011;16089;59.952;10.818;2022-10-17T07:04:40;3.05;;;0.70;;
28988;SDS011;16089;59.952;10.818;2022-10-17T07:07:06;9.82;;;2.40;;
28988;SDS011;16089;59.952;10.818;2022-10-17T07:09:33;4.38;;;1.00;;
28988;SDS011;16089;59.952;10.818;2022-10-17T07:12:01;7.03;;;0.98;;
28988;SDS011;16089;59.952;10.818;2022-10-17T07:14:27;6.20;;;0.98;;
28988;SDS011;16089;59.952;10.818;2022-10-17T07:16:56;4.32;;;0.82;;
28988;SDS011;16089;59.952;10.818;2022-10-17T07:19:22;6.70;;;1.40;;
28988;SDS011;16089;59.952;10.818;2022-10-17T07:21:48;2.55;;;0.75;;
28988;SDS011;16089;59.952;10.818;2022-10-17T07:24:15;4.78;;;0.77;;
28988;SDS011;16089;59.952;10.818;2022-10-17T07:26:41;5.35;;;1.20;;
28988;SDS011;16089;59.952;10.818;2022-10-17T07:29:09;5.22;;;1.10;;
28988;SDS011;16089;59.952;10.818;2022-10-17T07:31:35;5.68;;;1.05;;
28988;SDS011;16089;59.952;10.818;2022-10-17T07:34:02;6.05;;;1.05;;
28988;SDS011;16089;59.952;10.818;2022-10-17T07:36:28;7.45;;;1.10;;
28988;SDS011;16089;59.952;10.818;2022-10-17T07:38:54;2.72;;;0.80;;
28988;SDS011;16089;59.952;10.818;2022-10-17T07:41:21;3.95;;;0.90;;
28988;SDS011;16089;59.952;10.818;2022-10-17T07:43:47;4.65;;;1.00;;
28988;SDS011;16089;59.952;10.818;2022-10-17T07:46:15;7.97;;;1.30;;
28988;SDS011;16089;59.952;10.818;2022-10-17T07:48:41;6.65;;;0.85;;
28988;SDS011;16089;59.952;10.818;2022-10-17T07:51:08;10.60;;;1.30;;
28988;SDS011;16089;59.952;10.818;2022-10-17T07:53:35;3.97;;;1.00;;
28988;SDS011;16089;59.952;10.818;2022-10-17T07:56:04;2.88;;;0.90;;
28988;SDS011;16089;59.952;10.818;2022-10-17T07:58:31;4.75;;;1.10;;
28988;SDS011;16089;59.952;10.818;2022-10-17T08:00:59;7.43;;;1.02;;
28988;SDS011;16089;59.952;10.818;2022-10-17T08:03:27;5.40;;;1.05;;
28988;SDS011;16089;59.952;10.818;2022-10-17T08:05:55;7.50;;;1.02;;
28988;SDS011;16089;59.952;10.818;2022-10-17T08:08:21;5.57;;;0.93;;
28988;SDS011;16089;59.952;10.818;2022-10-17T08:10:48;6.65;;;1.00;;
28988;SDS011;16089;59.952;10.818;2022-10-17T08:13:14;6.90;;;1.20;;
28988;SDS011;16089;59.952;10.818;2022-10-17T08:15:40;5.55;;;1.02;;
28988;SDS011;16089;59.952;10.818;2022-10-17T08:18:07;5.57;;;1.30;;
28988;SDS011;16089;59.952;10.818;2022-10-17T08:20:34;5.80;;;1.30;;
28988;SDS011;16089;59.952;10.818;2022-10-17T08:23:01;5.97;;;1.33;;
28988;SDS011;16089;59.952;10.818;2022-10-17T08:25:28;7.70;;;1.45;;
28988;SDS011;16089;59.952;10.818;2022-10-17T08:27:54;7.00;;;1.40;;
28988;SDS011;16089;59.952;10.818;2022-10-17T08:30:20;6.55;;;1.92;;
28988;SDS011;16089;59.952;10.818;2022-10-17T08:32:46;8.07;;;1.63;;
28988;SDS011;16089;59.952;10.818;2022-10-17T08:35:13;6.57;;;1.67;;
28988;SDS011;16089;59.952;10.818;2022-10-17T08:37:41;5.80;;;1.60;;
28988;SDS011;16089;59.952;10.818;2022-10-17T08:40:09;9.70;;;1.67;;
28988;SDS011;16089;59.952;10.818;2022-10-17T08:42:47;5.63;;;1.30;;
28988;SDS011;16089;59.952;10.818;2022-10-17T08:45:17;7.25;;;1.75;;
28988;SDS011;16089;59.952;10.818;2022-10-17T08:47:46;6.22;;;1.40;;
28988;SDS011;16089;59.952;10.818;2022-10-17T08:52:57;6.50;;;1.60;;
28988;SDS011;16089;59.952;10.818;2022-10-17T08:55:27;6.68;;;1.35;;
28988;SDS011;16089;59.952;10.818;2022-10-17T08:57:54;9.43;;;1.90;;
28988;SDS011;16089;59.952;10.818;2022-10-17T09:00:21;7.95;;;1.35;;
28988;SDS011;16089;59.952;10.818;2022-10-17T09:02:49;9.68;;;2.17;;
28988;SDS011;16089;59.952;10.818;2022-10-17T09:05:24;6.75;;;1.40;;
28988;SDS011;16089;59.952;10.818;2022-10-17T09:07:54;7.65;;;1.70;;
28988;SDS011;16089;59.952;10.818;2022-10-17T09:10:27;5.78;;;1.20;;
28988;SDS011;16089;59.952;10.818;2022-10-17T09:13:06;8.43;;;1.17;;
28988;SDS011;16089;59.952;10.818;2022-10-17T09:15:41;5.25;;;1.40;;
28988;SDS011;16089;59.952;10.818;2022-10-17T09:18:09;12.30;;;1.52;;
28988;SDS011;16089;59.952;10.818;2022-10-17T09:20:37;9.15;;;1.48;;
28988;SDS011;16089;59.952;10.818;2022-10-17T09:23:07;7.03;;;1.50;;
28988;SDS011;16089;59.952;10.818;2022-10-17T09:25:41;8.55;;;1.63;;
28988;SDS011;16089;59.952;10.818;2022-10-17T09:28:10;5.00;;;1.52;;
28988;SDS011;16089;59.952;10.818;2022-10-17T09:30:39;7.93;;;1.75;;
28988;SDS011;16089;59.952;10.818;2022-10-17T09:33:09;9.60;;;2.10;;
28988;SDS011;16089;59.952;10.818;2022-10-17T09:35:35;9.25;;;2.13;;
28988;SDS011;16089;59.952;10.818;2022-10-17T09:38:02;5.78;;;1.42;;
28988;SDS011;16089;59.952;10.818;2022-10-17T09:40:30;9.75;;;2.55;;
28988;SDS011;16089;59.952;10.818;2022-10-17T09:42:59;10.35;;;2.63;;
28988;SDS011;16089;59.952;10.818;2022-10-17T09:45:26;9.57;;;3.25;;
28988;SDS011;16089;59.952;10.818;2022-10-17T09:47:56;8.95;;;3.50;;
28988;SDS011;16089;59.952;10.818;2022-10-17T09:50:25;10.57;;;3.63;;
28988;SDS011;16089;59.952;10.818;2022-10-17T09:52:52;8.77;;;3.00;;
28988;SDS011;16089;59.952;10.818;2022-10-17T09:55:19;11.32;;;4.18;;
28988;SDS011;16089;59.952;10.818;2022-10-17T09:57:53;9.50;;;3.25;;
28988;SDS011;16089;59.952;10.818;2022-10-17T10:00:24;9.82;;;3.15;;
28988;SDS011;16089;59.952;10.818;2022-10-17T10:03:01;9.57;;;3.55;;
28988;SDS011;16089;59.952;10.818;2022-10-17T10:05:33;8.80;;;2.85;;
28988;SDS011;16089;59.952;10.818;2022-10-17T10:08:00;12.82;;;3.60;;
28988;SDS011;16089;59.952;10.818;2022-10-17T10:10:27;8.52;;;3.60;;
28988;SDS011;16089;59.952;10.818;2022-10-17T10:13:02;11.85;;;4.00;;
28988;SDS011;16089;59.952;10.818;2022-10-17T10:15:31;11.65;;;4.70;;
28988;SDS011;16089;59.952;10.818;2022-10-17T10:17:58;16.38;;;5.57;;
28988;SDS011;16089;59.952;10.818;2022-10-17T10:20:26;17.70;;;5.35;;
28988;SDS011;16089;59.952;10.818;2022-10-17T10:23:06;18.85;;;5.20;;
28988;SDS011;16089;59.952;10.818;2022-10-17T10:25:33;10.20;;;4.05;;
28988;SDS011;16089;59.952;10.818;2022-10-17T10:28:00;14.85;;;4.55;;
28988;SDS011;16089;59.952;10.818;2022-10-17T10:30:27;13.25;;;5.07;;
28988;SDS011;16089;59.952;10.818;2022-10-17T10:32:55;16.75;;;4.78;;
28988;SDS011;16089;59.952;10.818;2022-10-17T10:35:24;14.68;;;4.55;;
28988;SDS011;16089;59.952;10.818;2022-10-17T10:37:54;14.65;;;4.75;;
28988;SDS011;16089;59.952;10.818;2022-10-17T10:40:22;17.65;;;5.38;;
28988;SDS011;16089;59.952;10.818;2022-10-17T10:42:52;13.65;;;4.47;;
28988;SDS011;16089;59.952;10.818;2022-10-17T10:45:21;14.35;;;4.68;;
28988;SDS011;16089;59.952;10.818;2022-10-17T10:47:49;16.55;;;5.63;;
28988;SDS011;16089;59.952;10.818;2022-10-17T10:50:22;18.38;;;6.15;;
28988;SDS011;16089;59.952;10.818;2022-10-17T10:52:50;15.63;;;4.10;;
28988;SDS011;16089;59.952;10.818;2022-10-17T10:55:20;11.45;;;4.10;;
28988;SDS011;16089;59.952;10.818;2022-10-17T10:57:52;10.40;;;4.20;;
28988;SDS011;16089;59.952;10.818;2022-10-17T11:00:22;11.60;;;4.68;;
28988;SDS011;16089;59.952;10.818;2022-10-17T11:02:51;10.40;;;4.47;;
28988;SDS011;16089;59.952;10.818;2022-10-17T11:05:21;14.43;;;3.70;;
28988;SDS011;16089;59.952;10.818;2022-10-17T11:07:51;12.63;;;4.32;;
28988;SDS011;16089;59.952;10.818;2022-10-17T11:10:21;20.75;;;4.20;;
28988;SDS011;16089;59.952;10.818;2022-10-17T11:12:49;9.98;;;3.90;;
28988;SDS011;16089;59.952;10.818;2022-10-17T11:15:19;13.45;;;3.90;;
28988;SDS011;16089;59.952;10.818;2022-10-17T11:17:50;12.32;;;4.32;;
28988;SDS011;16089;59.952;10.818;2022-10-17T11:20:19;11.38;;;3.58;;
28988;SDS011;16089;59.952;10.818;2022-10-17T11:22:47;18.15;;;3.88;;
28988;SDS011;16089;59.952;10.818;2022-10-17T11:25:19;11.13;;;3.72;;
28988;SDS011;16089;59.952;10.818;2022-10-17T11:27:50;15.02;;;3.88;;
28988;SDS011;16089;59.952;10.818;2022-10-17T11:30:16;12.77;;;3.78;;
28988;SDS011;16089;59.952;10.818;2022-10-17T11:32:43;18.08;;;4.38;;
28988;SDS011;16089;59.952;10.818;2022-10-17T11:35:14;9.75;;;4.25;;
28988;SDS011;16089;59.952;10.818;2022-10-17T11:37:43;14.52;;;5.57;;
28988;SDS011;16089;59.952;10.818;2022-10-17T11:40:14;13.90;;;5.00;;
28988;SDS011;16089;59.952;10.818;2022-10-17T11:42:45;17.02;;;5.07;;
28988;SDS011;16089;59.952;10.818;2022-10-17T11:45:14;14.75;;;5.03;;
28988;SDS011;16089;59.952;10.818;2022-10-17T11:47:43;16.00;;;4.72;;
28988;SDS011;16089;59.952;10.818;2022-10-17T11:50:15;11.20;;;4.53;;
28988;SDS011;16089;59.952;10.818;2022-10-17T11:52:45;21.27;;;5.00;;
28988;SDS011;16089;59.952;10.818;2022-10-17T11:55:15;23.10;;;4.70;;
28988;SDS011;16089;59.952;10.818;2022-10-17T11:57:51;15.88;;;4.80;;
28988;SDS011;16089;59.952;10.818;2022-10-17T12:00:21;14.27;;;4.95;;
28988;SDS011;16089;59.952;10.818;2022-10-17T12:02:50;20.90;;;5.03;;
28988;SDS011;16089;59.952;10.818;2022-10-17T12:05:23;17.30;;;5.15;;
28988;SDS011;16089;59.952;10.818;2022-10-17T12:07:53;13.77;;;4.60;;
28988;SDS011;16089;59.952;10.818;2022-10-17T12:10:29;13.18;;;4.57;;
28988;SDS011;16089;59.952;10.818;2022-10-17T12:12:57;17.85;;;4.40;;
28988;SDS011;16089;59.952;10.818;2022-10-17T12:15:44;10.95;;;3.58;;
28988;SDS011;16089;59.952;10.818;2022-10-17T12:18:14;10.98;;;3.10;;
28988;SDS011;16089;59.952;10.818;2022-10-17T12:20:41;15.60;;;3.65;;
28988;SDS011;16089;59.952;10.818;2022-10-17T12:23:20;7.88;;;2.80;;
28988;SDS011;16089;59.952;10.818;2022-10-17T12:25:49;9.15;;;2.58;;
28988;SDS011;16089;59.952;10.818;2022-10-17T12:28:18;7.70;;;2.90;;
28988;SDS011;16089;59.952;10.818;2022-10-17T12:30:51;7.68;;;2.03;;
28988;SDS011;16089;59.952;10.818;2022-10-17T12:33:18;3.58;;;1.15;;
28988;SDS011;16089;59.952;10.818;2022-10-17T12:35:47;4.30;;;1.08;;
28988;SDS011;16089;59.952;10.818;2022-10-17T12:38:18;3.88;;;1.30;;
28988;SDS011;16089;59.952;10.818;2022-10-17T12:40:48;3.42;;;0.80;;
28988;SDS011;16089;59.952;10.818;2022-10-17T12:46:01;2.05;;;0.77;;
28988;SDS011;16089;59.952;10.818;2022-10-17T12:51:13;2.85;;;0.70;;
28988;SDS011;16089;59.952;10.818;2022-10-17T12:53:43;4.82;;;0.88;;
28988;SDS011;16089;59.952;10.818;2022-10-17T12:56:11;3.33;;;0.65;;
28988;SDS011;16089;59.952;10.818;2022-10-17T12:58:40;2.28;;;0.50;;
28988;SDS011;16089;59.952;10.818;2022-10-17T13:01:09;2.22;;;0.65;;
28988;SDS011;16089;59.952;10.818;2022-10-17T13:03:41;1.35;;;0.22;;
28988;SDS011;16089;59.952;10.818;2022-10-17T13:06:12;2.33;;;0.40;;
28988;SDS011;16089;59.952;10.818;2022-10-17T13:08:42;2.20;;;0.40;;
28988;SDS011;16089;59.952;10.818;2022-10-17T13:11:09;3.35;;;0.55;;
28988;SDS011;16089;59.952;10.818;2022-10-17T13:13:37;3.20;;;0.70;;
28988;SDS011;16089;59.952;10.818;2022-10-17T13:16:06;2.80;;;0.70;;
28988;SDS011;16089;59.952;10.818;2022-10-17T13:18:34;1.25;;;0.45;;
28988;SDS011;16089;59.952;10.818;2022-10-17T13:21:02;1.75;;;0.60;;
28988;SDS011;16089;59.952;10.818;2022-10-17T13:23:31;0.98;;;0.40;;
28988;SDS011;16089;59.952;10.818;2022-10-17T13:26:01;1.05;;;0.40;;
28988;SDS011;16089;59.952;10.818;2022-10-17T13:28:27;1.63;;;0.40;;
28988;SDS011;16089;59.952;10.818;2022-10-17T13:30:54;1.25;;;0.50;;
28988;SDS011;16089;59.952;10.818;2022-10-17T13:33:27;3.03;;;0.70;;
28988;SDS011;16089;59.952;10.818;2022-10-17T13:35:55;0.82;;;0.30;;
28988;SDS011;16089;59.952;10.818;2022-10-17T13:38:22;8.00;;;3.47;;
28988;SDS011;16089;59.952;10.818;2022-10-17T13:40:49;10.80;;;5.50;;
28988;SDS011;16089;59.952;10.818;2022-10-17T13:43:19;3.03;;;1.27;;
28988;SDS011;16089;59.952;10.818;2022-10-17T13:45:46;1.42;;;0.30;;
28988;SDS011;16089;59.952;10.818;2022-10-17T13:48:17;1.25;;;0.30;;
28988;SDS011;16089;59.952;10.818;2022-10-17T13:50:45;0.63;;;0.20;;
28988;SDS011;16089;59.952;10.818;2022-10-17T13:53:18;1.13;;;0.28;;
28988;SDS011;16089;59.952;10.818;2022-10-17T13:55:52;1.15;;;0.40;;
28988;SDS011;16089;59.952;10.818;2022-10-17T13:58:19;3.40;;;1.10;;
28988;SDS011;16089;59.952;10.818;2022-10-17T14:00:45;5.88;;;2.05;;
28988;SDS011;16089;59.952;10.818;2022-10-17T14:03:13;4.93;;;1.45;;
28988;SDS011;16089;59.952;10.818;2022-10-17T14:05:58;5.57;;;1.40;;
28988;SDS011;16089;59.952;10.818;2022-10-17T14:08:27;3.45;;;1.25;;
28988;SDS011;16089;59.952;10.818;2022-10-17T14:10:54;2.58;;;1.27;;
28988;SDS011;16089;59.952;10.818;2022-10-17T14:13:21;4.38;;;1.00;;
28988;SDS011;16089;59.952;10.818;2022-10-17T14:15:48;2.42;;;0.90;;
28988;SDS011;16089;59.952;10.818;2022-10-17T14:18:16;2.72;;;0.80;;
28988;SDS011;16089;59.952;10.818;2022-10-17T14:20:44;2.25;;;1.00;;
28988;SDS011;16089;59.952;10.818;2022-10-17T14:26:03;1.40;;;0.60;;
28988;SDS011;16089;59.952;10.818;2022-10-17T14:28:30;2.10;;;0.82;;
28988;SDS011;16089;59.952;10.818;2022-10-17T14:31:07;2.95;;;0.73;;
28988;SDS011;16089;59.952;10.818;2022-10-17T14:33:41;1.60;;;0.70;;
28988;SDS011;16089;59.952;10.818;2022-10-17T14:36:07;4.72;;;0.75;;
28988;SDS011;16089;59.952;10.818;2022-10-17T14:38:33;3.20;;;0.60;;
28988;SDS011;16089;59.952;10.818;2022-10-17T14:41:01;2.65;;;0.93;;
28988;SDS011;16089;59.952;10.818;2022-10-17T14:43:29;3.47;;;0.80;;
28988;SDS011;16089;59.952;10.818;2022-10-17T14:45:57;3.80;;;1.30;;
28988;SDS011;16089;59.952;10.818;2022-10-17T14:48:24;2.38;;;0.70;;
28988;SDS011;16089;59.952;10.818;2022-10-17T14:51:04;1.77;;;0.60;;
28988;SDS011;16089;59.952;10.818;2022-10-17T14:53:31;1.85;;;0.65;;